createdAt,value
2019-02-14T00:00:30.821Z,94.20
2019-02-14T00:03:00.099Z,94.30
2019-02-14T00:05:29.705Z,94.20
2019-02-14T00:07:59.324Z,94.40
2019-02-14T00:10:28.614Z,94.40
2019-02-14T00:12:57.881Z,94.50
2019-02-14T00:15:27.174Z,94.60
2019-02-14T00:17:56.442Z,94.80
2019-02-14T00:20:25.739Z,94.70
2019-02-14T00:22:55.321Z,94.30
2019-02-14T00:25:24.940Z,94.20
2019-02-14T00:27:54.211Z,94.30
2019-02-14T00:30:23.493Z,93.90
2019-02-14T00:32:52.761Z,94.00
2019-02-14T00:35:25.206Z,93.80
2019-02-14T00:37:53.990Z,93.80
2019-02-14T00:40:23.267Z,94.00
2019-02-14T00:42:52.537Z,94.00
2019-02-14T00:45:21.810Z,93.90
2019-02-14T00:47:51.410Z,93.90
2019-02-14T00:50:21.012Z,93.90
2019-02-14T00:52:50.286Z,94.00
2019-02-14T00:55:19.565Z,93.90
2019-02-14T00:57:50.357Z,93.80
2019-02-14T01:00:19.637Z,93.90
2019-02-14T01:02:48.911Z,93.70
2019-02-14T01:05:18.200Z,94.10
2019-02-14T01:07:47.469Z,94.20
2019-02-14T01:10:16.991Z,94.20
2019-02-14T01:12:46.587Z,94.60
2019-02-14T01:15:17.813Z,94.70
2019-02-14T01:17:47.076Z,94.70
2019-02-14T01:20:16.614Z,94.70
2019-02-14T01:22:46.221Z,94.60
2019-02-14T01:25:15.505Z,94.40
2019-02-14T01:27:44.796Z,94.40
2019-02-14T01:30:14.429Z,94.40
2019-02-14T01:32:43.705Z,94.60
2019-02-14T01:35:13.290Z,94.20
2019-02-14T01:37:42.595Z,94.10
2019-02-14T01:40:11.873Z,93.70
2019-02-14T01:42:41.466Z,93.40
2019-02-14T01:45:11.872Z,93.80
2019-02-14T01:47:41.147Z,93.70
2019-02-14T01:50:11.260Z,94.50
2019-02-14T01:52:40.536Z,94.50
2019-02-14T01:55:10.107Z,94.50
2019-02-14T01:57:39.386Z,94.10
2019-02-14T02:00:14.936Z,94.30
2019-02-14T02:02:44.203Z,94.50
2019-02-14T02:05:14.548Z,94.50
2019-02-14T02:07:44.088Z,94.60
2019-02-14T02:10:13.618Z,94.60
2019-02-14T02:12:42.886Z,94.40
2019-02-14T02:15:14.373Z,94.20
2019-02-14T02:17:43.645Z,94.20
2019-02-14T02:20:12.920Z,94.00
2019-02-14T02:22:42.185Z,94.10
2019-02-14T02:25:12.245Z,94.00
2019-02-14T02:27:41.522Z,94.30
2019-02-14T02:30:13.770Z,94.10
2019-02-14T02:32:43.437Z,94.10
2019-02-14T02:35:13.050Z,94.30
2019-02-14T02:37:42.320Z,94.40
2019-02-14T02:40:12.057Z,94.40
2019-02-14T02:42:41.333Z,94.30
2019-02-14T02:45:12.242Z,94.40
2019-02-14T02:47:41.520Z,94.30
2019-02-14T02:50:12.234Z,94.10
2019-02-14T02:52:41.861Z,94.30
2019-02-14T02:55:11.197Z,94.20
2019-02-14T02:57:40.486Z,93.90
2019-02-14T03:00:17.731Z,94.00
2019-02-14T03:02:47.008Z,93.20
2019-02-14T03:05:16.281Z,94.20
2019-02-14T03:07:45.556Z,94.30
2019-02-14T03:10:14.828Z,94.30
2019-02-14T03:12:45.171Z,94.40
2019-02-14T03:15:15.278Z,94.40
2019-02-14T03:17:44.564Z,94.40
2019-02-14T03:20:13.998Z,94.50
2019-02-14T03:22:43.283Z,94.50
2019-02-14T03:25:17.921Z,94.50
2019-02-14T03:27:47.569Z,93.70
2019-02-14T03:30:17.144Z,93.30
2019-02-14T03:32:46.730Z,93.90
2019-02-14T03:35:16.005Z,94.70
2019-02-14T03:37:45.293Z,94.70
2019-02-14T03:40:15.113Z,94.30
2019-02-14T03:42:44.644Z,94.50
2019-02-14T03:45:21.108Z,94.20
2019-02-14T03:47:50.390Z,94.10
2019-02-14T03:50:19.659Z,94.40
2019-02-14T03:52:49.181Z,94.60
2019-02-14T03:55:18.501Z,94.60
2019-02-14T03:57:47.794Z,94.50
2019-02-14T04:00:17.906Z,94.40
2019-02-14T04:02:47.228Z,94.30
2019-02-14T04:05:16.755Z,94.30
2019-02-14T04:07:46.029Z,94.20
2019-02-14T04:10:15.505Z,94.20
2019-02-14T04:12:44.827Z,94.20
2019-02-14T04:15:18.088Z,94.20
2019-02-14T04:17:47.359Z,94.20
2019-02-14T04:20:16.637Z,94.10
2019-02-14T04:22:45.916Z,94.00
2019-02-14T04:25:15.210Z,93.70
2019-02-14T04:27:44.474Z,93.70
2019-02-14T04:30:14.586Z,93.90
2019-02-14T04:32:43.858Z,93.70
2019-02-14T04:35:13.138Z,93.70
2019-02-14T04:37:42.423Z,93.40
2019-02-14T04:40:13.021Z,93.50
2019-02-14T04:42:42.718Z,93.50
2019-02-14T04:45:13.040Z,93.70
2019-02-14T04:47:43.061Z,93.30
2019-02-14T04:50:12.406Z,92.90
2019-02-14T04:52:41.676Z,92.90
2019-02-14T04:55:12.253Z,92.80
2019-02-14T04:57:41.529Z,92.70
2019-02-14T05:00:13.509Z,92.70
2019-02-14T05:02:42.800Z,92.90
2019-02-14T05:05:12.058Z,93.00
2019-02-14T05:07:41.586Z,92.90
2019-02-14T05:10:11.797Z,92.50
2019-02-14T05:12:41.086Z,92.20
2019-02-14T05:15:11.024Z,92.10
2019-02-14T05:17:40.610Z,92.70
2019-02-14T05:20:13.076Z,92.80
2019-02-14T05:22:42.370Z,92.80
2019-02-14T05:25:11.637Z,92.80
2019-02-14T05:27:40.918Z,92.80
2019-02-14T05:30:17.885Z,92.60
2019-02-14T05:32:47.161Z,92.30
2019-02-14T05:35:16.425Z,92.30
2019-02-14T05:37:45.881Z,92.70
2019-02-14T05:40:15.469Z,92.60
2019-02-14T05:42:44.752Z,92.10
2019-02-14T05:45:14.894Z,92.00
2019-02-14T05:47:44.169Z,92.20
2019-02-14T05:50:14.380Z,92.50
2019-02-14T05:52:43.665Z,92.90
2019-02-14T05:55:13.116Z,93.10
2019-02-14T05:57:42.391Z,93.00
2019-02-14T06:00:16.473Z,93.10
2019-02-14T06:02:46.043Z,93.30
2019-02-14T06:05:15.384Z,93.20
2019-02-14T06:07:44.674Z,93.10
2019-02-14T06:10:14.182Z,92.90
2019-02-14T06:12:43.465Z,92.50
2019-02-14T06:15:13.484Z,92.50
2019-02-14T06:17:42.754Z,92.50
2019-02-14T06:20:12.953Z,92.60
2019-02-14T06:22:42.238Z,92.70
2019-02-14T06:25:12.646Z,92.60
2019-02-14T06:27:41.921Z,92.40
2019-02-14T06:30:15.521Z,92.60
2019-02-14T06:32:44.805Z,92.10
2019-02-14T06:35:14.076Z,91.90
2019-02-14T06:37:43.362Z,92.00
2019-02-14T06:40:15.485Z,91.90
2019-02-14T06:42:44.777Z,91.90
2019-02-14T06:45:17.675Z,92.00
2019-02-14T06:47:46.967Z,92.10
2019-02-14T06:50:16.231Z,92.20
2019-02-14T06:52:45.497Z,91.80
2019-02-14T06:55:14.772Z,91.90
2019-02-14T06:57:44.054Z,91.90
2019-02-14T07:00:17.782Z,92.10
2019-02-14T07:02:47.191Z,92.20
2019-02-14T07:05:16.790Z,91.70
2019-02-14T07:07:46.066Z,91.70
2019-02-14T07:10:15.337Z,91.60
2019-02-14T07:12:44.620Z,91.90
2019-02-14T07:15:14.653Z,92.10
2019-02-14T07:17:43.905Z,92.10
2019-02-14T07:20:15.227Z,92.30
2019-02-14T07:22:44.763Z,92.60
2019-02-14T07:25:14.037Z,92.80
2019-02-14T07:27:43.314Z,92.70
2019-02-14T07:30:20.905Z,92.60
2019-02-14T07:32:50.165Z,92.60
2019-02-14T07:35:19.617Z,92.70
2019-02-14T07:37:48.887Z,92.80
2019-02-14T07:40:18.565Z,92.80
2019-02-14T07:42:47.838Z,92.30
2019-02-14T07:45:17.966Z,92.10
2019-02-14T07:47:47.305Z,91.90
2019-02-14T07:50:16.581Z,91.50
2019-02-14T07:52:45.883Z,91.40
2019-02-14T07:55:15.622Z,90.80
2019-02-14T07:57:44.944Z,90.50
2019-02-14T08:00:16.743Z,90.20
2019-02-14T08:02:46.020Z,90.10
2019-02-14T08:05:15.303Z,89.80
2019-02-14T08:07:44.574Z,89.90
2019-02-14T08:10:17.882Z,89.70
2019-02-14T08:12:47.195Z,89.10
2019-02-14T08:15:16.512Z,89.00
2019-02-14T08:17:45.780Z,88.50
2019-02-14T08:20:21.774Z,87.90
2019-02-14T08:22:51.037Z,87.90
2019-02-14T08:25:20.312Z,87.00
2019-02-14T08:27:49.585Z,86.40
2019-02-14T08:30:20.209Z,86.10
2019-02-14T08:32:49.474Z,85.80
2019-02-14T08:35:18.750Z,84.70
2019-02-14T08:37:48.249Z,83.40
2019-02-14T08:40:25.645Z,83.00
2019-02-14T08:42:54.988Z,81.70
2019-02-14T08:45:24.272Z,79.60
2019-02-14T08:47:53.528Z,78.80
2019-02-14T08:50:23.055Z,77.40
2019-02-14T08:52:52.313Z,76.80
2019-02-14T08:55:21.593Z,76.10
2019-02-14T08:57:50.873Z,75.60
2019-02-14T09:00:20.150Z,74.00
2019-02-14T09:02:49.661Z,72.20
2019-02-14T09:05:19.271Z,71.20
2019-02-14T09:07:54.779Z,71.50
2019-02-14T09:10:19.813Z,69.80
2019-02-14T09:12:49.324Z,69.70
2019-02-14T09:15:18.605Z,69.60
2019-02-14T09:17:48.126Z,69.40
2019-02-14T09:20:20.493Z,69.90
2019-02-14T09:22:50.009Z,70.60
2019-02-14T09:25:19.298Z,69.90
2019-02-14T09:27:48.576Z,69.60
2019-02-14T09:30:17.869Z,69.00
2019-02-14T09:32:47.451Z,68.10
2019-02-14T09:35:17.027Z,67.10
2019-02-14T09:37:46.631Z,66.10
2019-02-14T09:40:18.395Z,67.10
2019-02-14T09:42:47.681Z,67.40
2019-02-14T09:45:17.643Z,67.30
2019-02-14T09:47:46.916Z,66.20
2019-02-14T09:50:16.193Z,66.60
2019-02-14T09:52:45.483Z,65.60
2019-02-14T09:55:14.926Z,64.10
2019-02-14T09:57:44.233Z,65.10
2019-02-14T10:00:19.503Z,64.20
2019-02-14T10:02:48.773Z,64.00
2019-02-14T10:05:18.361Z,63.80
2019-02-14T10:07:47.632Z,63.00
2019-02-14T10:10:26.111Z,61.80
2019-02-14T10:12:55.395Z,62.10
2019-02-14T10:15:24.682Z,61.90
2019-02-14T10:17:53.949Z,62.20
2019-02-14T10:20:23.240Z,63.00
2019-02-14T10:22:52.522Z,62.30
2019-02-14T10:25:21.810Z,61.00
2019-02-14T10:27:51.084Z,62.40
2019-02-14T10:30:21.793Z,60.60
2019-02-14T10:32:51.160Z,60.10
2019-02-14T10:35:20.446Z,60.30
2019-02-14T10:37:49.731Z,59.50
2019-02-14T10:40:19.327Z,59.80
2019-02-14T10:42:48.601Z,59.00
2019-02-14T10:45:19.621Z,59.50
2019-02-14T10:47:48.898Z,57.60
2019-02-14T10:50:18.481Z,58.70
2019-02-14T10:52:48.127Z,57.10
2019-02-14T10:55:17.511Z,58.60
2019-02-14T10:57:46.781Z,58.50
2019-02-14T11:00:24.534Z,57.50
2019-02-14T11:02:54.085Z,56.60
2019-02-14T11:05:23.424Z,56.60
2019-02-14T11:07:52.735Z,56.50
2019-02-14T11:10:22.072Z,57.10
2019-02-14T11:12:51.358Z,57.90
2019-02-14T11:15:22.951Z,60.30
2019-02-14T11:17:53.696Z,58.80
2019-02-14T11:20:22.973Z,58.50
2019-02-14T11:22:52.481Z,56.80
2019-02-14T11:25:24.893Z,57.60
2019-02-14T11:27:54.533Z,55.20
2019-02-14T11:30:23.829Z,58.00
2019-02-14T11:32:53.123Z,57.80
2019-02-14T11:35:22.409Z,53.00
2019-02-14T11:37:51.979Z,53.90
2019-02-14T11:40:21.269Z,55.80
2019-02-14T11:42:50.892Z,53.90
2019-02-14T11:45:21.614Z,54.80
2019-02-14T11:47:50.922Z,55.60
2019-02-14T11:50:20.198Z,56.20
2019-02-14T11:52:49.477Z,54.70
2019-02-14T11:55:19.057Z,54.70
2019-02-14T11:57:48.657Z,53.60
2019-02-14T12:00:27.990Z,54.40
2019-02-14T12:02:57.302Z,53.70
2019-02-14T12:05:26.895Z,53.90
2019-02-14T12:07:57.528Z,53.70
2019-02-14T12:10:27.865Z,53.10
2019-02-14T12:12:57.148Z,53.10
2019-02-14T12:15:26.429Z,52.40
2019-02-14T12:17:55.718Z,52.80
2019-02-14T12:20:24.986Z,53.10
2019-02-14T12:22:54.551Z,55.90
2019-02-14T12:25:29.230Z,54.80
2019-02-14T12:27:58.521Z,53.60
2019-02-14T12:30:28.191Z,54.00
2019-02-14T12:32:57.795Z,53.30
2019-02-14T12:35:27.069Z,52.00
2019-02-14T12:37:56.362Z,52.20
2019-02-14T12:40:25.629Z,52.40
2019-02-14T12:42:54.929Z,52.20
2019-02-14T12:45:26.300Z,52.30
2019-02-14T12:47:56.619Z,53.00
2019-02-14T12:50:26.857Z,54.10
2019-02-14T12:52:56.143Z,53.40
2019-02-14T12:55:25.424Z,54.00
2019-02-14T12:57:54.709Z,52.60
2019-02-14T13:00:24.560Z,51.70
2019-02-14T13:02:53.837Z,52.50
2019-02-14T13:05:23.119Z,52.70
2019-02-14T13:07:52.397Z,52.10
2019-02-14T13:10:21.681Z,51.40
2019-02-14T13:12:50.974Z,51.10
2019-02-14T13:15:26.014Z,51.50
2019-02-14T13:17:55.293Z,52.10
2019-02-14T13:20:24.570Z,50.70
2019-02-14T13:22:54.934Z,50.80
2019-02-14T13:25:24.490Z,50.30
2019-02-14T13:27:54.087Z,50.70
2019-02-14T13:30:25.326Z,49.80
2019-02-14T13:32:54.677Z,49.40
2019-02-14T13:35:23.937Z,50.80
2019-02-14T13:37:53.259Z,49.60
2019-02-14T13:40:22.586Z,48.40
2019-02-14T13:42:51.861Z,47.60
2019-02-14T13:45:23.089Z,49.10
2019-02-14T13:47:52.685Z,49.30
2019-02-14T13:50:22.017Z,48.20
2019-02-14T13:52:51.597Z,50.20
2019-02-14T13:55:20.885Z,48.20
2019-02-14T13:57:50.509Z,46.10
2019-02-14T14:00:23.196Z,49.00
2019-02-14T14:02:52.793Z,47.40
2019-02-14T14:05:22.409Z,47.70
2019-02-14T14:07:52.013Z,47.40
2019-02-14T14:10:21.294Z,48.80
2019-02-14T14:12:50.818Z,45.30
2019-02-14T14:15:20.433Z,44.90
2019-02-14T14:17:49.710Z,47.10
2019-02-14T14:20:19.345Z,44.20
2019-02-14T14:22:49.688Z,45.80
2019-02-14T14:25:18.969Z,47.90
2019-02-14T14:27:48.249Z,47.40
2019-02-14T14:30:17.775Z,46.70
2019-02-14T14:32:47.474Z,46.60
2019-02-14T14:35:16.749Z,46.50
2019-02-14T14:37:46.082Z,47.30
2019-02-14T14:40:17.013Z,47.40
2019-02-14T14:42:51.074Z,46.70
2019-02-14T14:45:34.495Z,47.20
2019-02-14T14:48:04.087Z,47.30
2019-02-14T14:50:33.678Z,47.60
2019-02-14T14:53:02.966Z,47.80
2019-02-14T14:55:32.244Z,48.50
2019-02-14T14:58:01.530Z,48.50
2019-02-14T15:00:30.800Z,49.10
2019-02-14T15:03:00.085Z,49.60
2019-02-14T15:05:29.366Z,48.90
2019-02-14T15:07:58.645Z,47.40
2019-02-14T15:10:27.922Z,47.20
2019-02-14T15:12:57.215Z,47.10
2019-02-14T15:15:26.550Z,51.90
2019-02-14T15:17:56.200Z,47.90
2019-02-14T15:20:25.473Z,47.40
2019-02-14T15:22:56.291Z,48.00
2019-02-14T15:25:25.909Z,47.90
2019-02-14T15:27:55.437Z,48.20
2019-02-14T15:30:24.711Z,48.30
2019-02-14T15:32:55.172Z,49.30
2019-02-14T15:35:24.782Z,47.80
2019-02-14T15:37:54.390Z,49.70
2019-02-14T15:40:23.674Z,48.10
2019-02-14T15:42:52.982Z,48.40
2019-02-14T15:45:22.298Z,49.80
2019-02-14T15:47:51.578Z,50.70
2019-02-14T15:50:20.865Z,49.20
2019-02-14T15:52:52.213Z,50.40
2019-02-14T15:55:21.983Z,50.80
2019-02-14T15:57:52.410Z,49.20
2019-02-14T16:00:21.761Z,51.00
2019-02-14T16:02:52.542Z,51.50
2019-02-14T16:05:22.326Z,51.90
2019-02-14T16:07:51.929Z,52.90
2019-02-14T16:10:21.222Z,52.20
2019-02-14T16:12:50.747Z,52.90
2019-02-14T16:15:20.027Z,52.90
2019-02-14T16:17:49.293Z,53.80
2019-02-14T16:20:19.894Z,53.70
2019-02-14T16:22:49.294Z,54.30
2019-02-14T16:25:18.587Z,55.40
2019-02-14T16:27:48.664Z,55.60
2019-02-14T16:30:18.882Z,56.00
2019-02-14T16:32:49.349Z,56.90
2019-02-14T16:35:18.638Z,57.10
2019-02-14T16:37:50.059Z,58.20
2019-02-14T16:40:27.178Z,58.40
2019-02-14T16:42:49.857Z,58.00
2019-02-14T16:45:19.145Z,58.70
2019-02-14T16:47:48.412Z,58.20
2019-02-14T16:50:17.697Z,59.00
2019-02-14T16:52:47.016Z,62.10
2019-02-14T16:55:16.305Z,61.20
2019-02-14T16:57:45.837Z,61.10
2019-02-14T17:00:15.447Z,60.20
2019-02-14T17:02:44.722Z,59.80
2019-02-14T17:05:14.007Z,61.20
2019-02-14T17:07:43.280Z,61.30
2019-02-14T17:10:12.565Z,59.70
2019-02-14T17:12:41.840Z,60.20
2019-02-14T17:15:11.286Z,58.60
2019-02-14T17:17:40.590Z,60.30
2019-02-14T17:20:11.174Z,62.90
2019-02-14T17:22:40.470Z,64.10
2019-02-14T17:25:09.811Z,63.80
2019-02-14T17:27:39.072Z,61.20
2019-02-14T17:30:09.817Z,63.20
2019-02-14T17:32:39.137Z,62.40
2019-02-14T17:35:09.490Z,60.70
2019-02-14T17:37:38.782Z,60.50
2019-02-14T17:40:09.509Z,63.40
2019-02-14T17:42:39.848Z,64.10
2019-02-14T17:45:10.456Z,63.50
2019-02-14T17:47:39.720Z,62.40
2019-02-14T17:50:09.379Z,62.00
2019-02-14T17:52:38.657Z,62.00
2019-02-14T17:55:10.103Z,61.10
2019-02-14T17:57:39.368Z,61.60
2019-02-14T18:00:13.710Z,61.70
2019-02-14T18:02:43.321Z,61.40
2019-02-14T18:05:12.937Z,61.80
2019-02-14T18:07:42.544Z,62.10
2019-02-14T18:10:12.961Z,62.00
2019-02-14T18:12:42.578Z,61.60
2019-02-14T18:15:13.802Z,62.10
2019-02-14T18:17:44.689Z,62.10
2019-02-14T18:20:13.981Z,62.60
2019-02-14T18:22:43.252Z,62.10
2019-02-14T18:25:13.012Z,62.20
2019-02-14T18:27:42.281Z,62.00
2019-02-14T18:30:12.410Z,62.00
2019-02-14T18:32:41.686Z,62.00
2019-02-14T18:35:12.204Z,62.00
2019-02-14T18:37:41.730Z,62.10
2019-02-14T18:40:11.913Z,62.20
2019-02-14T18:42:46.384Z,62.60
2019-02-14T18:45:15.669Z,62.60
2019-02-14T18:47:44.942Z,62.80
2019-02-14T18:50:14.812Z,62.80
2019-02-14T18:52:44.083Z,63.10
2019-02-14T18:55:13.793Z,63.40
2019-02-14T18:57:43.066Z,64.20
2019-02-14T19:00:16.865Z,64.10
2019-02-14T19:02:46.134Z,64.00
2019-02-14T19:05:15.421Z,63.70
2019-02-14T19:07:44.689Z,63.80
2019-02-14T19:10:18.436Z,64.00
2019-02-14T19:12:48.123Z,64.10
2019-02-14T19:15:18.359Z,65.00
2019-02-14T19:17:47.608Z,65.10
2019-02-14T19:20:16.898Z,65.40
2019-02-14T19:22:46.180Z,65.70
2019-02-14T19:25:15.452Z,65.80
2019-02-14T19:27:44.994Z,66.00
2019-02-14T19:30:14.701Z,65.90
2019-02-14T19:32:44.302Z,66.80
2019-02-14T19:35:22.813Z,66.20
2019-02-14T19:37:45.886Z,66.10
2019-02-14T19:40:15.146Z,66.60
2019-02-14T19:42:44.461Z,66.90
2019-02-14T19:45:14.065Z,66.70
2019-02-14T19:47:43.652Z,67.20
2019-02-14T19:50:14.466Z,67.80
2019-02-14T19:52:43.745Z,67.60
2019-02-14T19:55:13.014Z,67.80
2019-02-14T19:57:42.291Z,67.80
2019-02-14T20:00:14.968Z,67.10
2019-02-14T20:02:44.259Z,66.40
2019-02-14T20:05:13.509Z,66.40
2019-02-14T20:07:42.799Z,65.70
2019-02-14T20:10:16.061Z,66.00
2019-02-14T20:12:45.343Z,66.10
2019-02-14T20:15:17.781Z,66.60
2019-02-14T20:17:47.358Z,67.00
2019-02-14T20:20:16.629Z,67.20
2019-02-14T20:22:45.899Z,67.00
2019-02-14T20:25:18.269Z,67.10
2019-02-14T20:27:49.899Z,67.60
2019-02-14T20:30:18.761Z,66.30
2019-02-14T20:32:48.040Z,66.20
2019-02-14T20:35:17.563Z,66.20
2019-02-14T20:37:46.910Z,67.00
2019-02-14T20:40:16.177Z,66.70
2019-02-14T20:42:45.778Z,67.00
2019-02-14T20:45:15.530Z,67.80
2019-02-14T20:47:44.823Z,67.80
2019-02-14T20:50:15.329Z,67.60
2019-02-14T20:52:44.686Z,67.80
2019-02-14T20:55:23.760Z,67.20
2019-02-14T20:57:53.033Z,65.80
2019-02-14T21:00:26.642Z,66.00
2019-02-14T21:02:55.993Z,65.90
2019-02-14T21:05:25.257Z,65.80
2019-02-14T21:07:54.534Z,65.70
2019-02-14T21:10:23.864Z,65.60
2019-02-14T21:12:53.325Z,65.40
2019-02-14T21:15:22.653Z,65.80
2019-02-14T21:17:51.944Z,65.30
2019-02-14T21:20:21.204Z,64.70
2019-02-14T21:22:50.778Z,65.20
2019-02-14T21:25:22.946Z,65.40
2019-02-14T21:27:51.350Z,65.50
2019-02-14T21:30:20.989Z,65.60
2019-02-14T21:32:50.280Z,65.40
2019-02-14T21:35:20.593Z,65.70
2019-02-14T21:37:49.936Z,65.10
2019-02-14T21:40:19.841Z,65.50
2019-02-14T21:42:49.146Z,66.00
2019-02-14T21:45:18.596Z,66.00
2019-02-14T21:47:48.185Z,66.40
2019-02-14T21:50:17.458Z,66.30
2019-02-14T21:52:46.953Z,66.30
2019-02-14T21:55:16.813Z,67.30
2019-02-14T21:57:46.354Z,67.60
2019-02-14T22:00:18.425Z,67.90
2019-02-14T22:02:47.836Z,67.90
2019-02-14T22:05:24.009Z,68.20
2019-02-14T22:07:48.683Z,68.40
2019-02-14T22:10:17.949Z,68.70
2019-02-14T22:12:47.299Z,68.70
2019-02-14T22:15:22.315Z,68.70
2019-02-14T22:17:51.582Z,68.90
2019-02-14T22:20:20.836Z,69.10
2019-02-14T22:22:50.182Z,69.50
2019-02-14T22:25:19.449Z,70.00
2019-02-14T22:27:48.725Z,69.30
2019-02-14T22:30:18.465Z,68.60
2019-02-14T22:32:47.759Z,68.60
2019-02-14T22:35:17.021Z,68.60
2019-02-14T22:37:46.294Z,68.60
2019-02-14T22:40:15.565Z,68.80
2019-02-14T22:42:47.612Z,68.90
2019-02-14T22:45:16.087Z,69.30
2019-02-14T22:47:45.528Z,69.30
2019-02-14T22:50:14.958Z,69.00
2019-02-14T22:52:44.563Z,69.00
2019-02-14T22:55:14.458Z,69.80
2019-02-14T22:57:43.736Z,69.90
2019-02-14T23:00:26.725Z,69.80
2019-02-14T23:02:57.047Z,70.00
2019-02-14T23:05:26.655Z,70.30
2019-02-14T23:07:56.223Z,70.40
2019-02-14T23:10:25.499Z,70.40
2019-02-14T23:12:55.961Z,69.30
2019-02-14T23:15:25.505Z,69.80
2019-02-14T23:17:54.781Z,69.70
2019-02-14T23:20:24.049Z,69.50
2019-02-14T23:22:53.560Z,69.70
2019-02-14T23:25:23.903Z,68.90
2019-02-14T23:27:53.179Z,69.00
2019-02-14T23:30:22.502Z,68.90
2019-02-14T23:32:51.784Z,69.20
2019-02-14T23:35:21.296Z,69.30
2019-02-14T23:37:50.584Z,68.90
2019-02-14T23:40:19.850Z,68.80
2019-02-14T23:42:49.148Z,69.60
2019-02-14T23:45:18.427Z,69.60
2019-02-14T23:47:48.037Z,69.20
2019-02-14T23:50:17.302Z,69.90
2019-02-14T23:52:46.579Z,69.60
2019-02-14T23:55:15.858Z,69.50
2019-02-14T23:57:45.416Z,69.50
